sensor_id;sensor_type;location;lat;lon;timestamp;temperature;humidity
13642;DHT22;6894;52.196;9.904;2022-10-16T00:01:13;14.30;99.90
13642;DHT22;6894;52.196;9.904;2022-10-16T00:03:42;14.20;99.90
13642;DHT22;6894;52.196;9.904;2022-10-16T00:06:09;14.20;99.90
13642;DHT22;6894;52.196;9.904;2022-10-16T00:08:37;14.20;99.90
13642;DHT22;6894;52.196;9.904;2022-10-16T00:11:07;14.10;99.90
13642;DHT22;6894;52.196;9.904;2022-10-16T00:13:35;14.00;99.90
13642;DHT22;6894;52.196;9.904;2022-10-16T00:16:03;14.10;99.90
13642;DHT22;6894;52.196;9.904;2022-10-16T00:18:30;14.00;99.90
13642;DHT22;6894;52.196;9.904;2022-10-16T00:21:02;14.10;99.90
13642;DHT22;6894;52.196;9.904;2022-10-16T00:23:29;14.20;99.90
13642;DHT22;6894;52.196;9.904;2022-10-16T00:25:57;14.20;99.90
13642;DHT22;6894;52.196;9.904;2022-10-16T00:28:26;14.20;99.90
13642;DHT22;6894;52.196;9.904;2022-10-16T00:30:53;14.30;99.90
13642;DHT22;6894;52.196;9.904;2022-10-16T00:33:20;14.30;99.90
13642;DHT22;6894;52.196;9.904;2022-10-16T00:35:46;14.50;99.90
13642;DHT22;6894;52.196;9.904;2022-10-16T00:38:13;14.40;99.90
13642;DHT22;6894;52.196;9.904;2022-10-16T00:40:40;14.40;99.90
13642;DHT22;6894;52.196;9.904;2022-10-16T00:43:12;14.40;99.90
13642;DHT22;6894;52.196;9.904;2022-10-16T00:45:41;14.40;99.90
13642;DHT22;6894;52.196;9.904;2022-10-16T00:48:11;14.40;99.90
13642;DHT22;6894;52.196;9.904;2022-10-16T00:50:39;14.50;99.90
13642;DHT22;6894;52.196;9.904;2022-10-16T00:53:09;14.40;99.90
13642;DHT22;6894;52.196;9.904;2022-10-16T00:55:36;14.40;99.90
13642;DHT22;6894;52.196;9.904;2022-10-16T00:58:03;14.40;99.90
13642;DHT22;6894;52.196;9.904;2022-10-16T01:00:30;14.40;99.90
13642;DHT22;6894;52.196;9.904;2022-10-16T01:02:59;14.40;99.90
13642;DHT22;6894;52.196;9.904;2022-10-16T01:05:32;14.40;99.90
13642;DHT22;6894;52.196;9.904;2022-10-16T01:08:07;14.40;99.90
13642;DHT22;6894;52.196;9.904;2022-10-16T01:10:39;14.40;99.90
13642;DHT22;6894;52.196;9.904;2022-10-16T01:13:10;14.40;99.90
13642;DHT22;6894;52.196;9.904;2022-10-16T01:15:41;14.50;99.90
13642;DHT22;6894;52.196;9.904;2022-10-16T01:18:14;14.50;99.90
13642;DHT22;6894;52.196;9.904;2022-10-16T01:20:46;14.40;99.90
13642;DHT22;6894;52.196;9.904;2022-10-16T01:23:23;14.40;99.90
13642;DHT22;6894;52.196;9.904;2022-10-16T01:26:14;14.40;99.90
13642;DHT22;6894;52.196;9.904;2022-10-16T01:28:50;14.50;99.90
13642;DHT22;6894;52.196;9.904;2022-10-16T01:31:20;14.50;99.90
13642;DHT22;6894;52.196;9.904;2022-10-16T01:33:52;14.40;99.90
13642;DHT22;6894;52.196;9.904;2022-10-16T01:36:25;14.70;99.90
13642;DHT22;6894;52.196;9.904;2022-10-16T01:38:56;14.60;99.90
13642;DHT22;6894;52.196;9.904;2022-10-16T01:41:30;14.60;99.90
13642;DHT22;6894;52.196;9.904;2022-10-16T01:44:02;14.60;99.90
13642;DHT22;6894;52.196;9.904;2022-10-16T01:46:31;14.50;99.90
13642;DHT22;6894;52.196;9.904;2022-10-16T01:49:00;14.50;99.90
13642;DHT22;6894;52.196;9.904;2022-10-16T01:51:29;14.50;99.90
13642;DHT22;6894;52.196;9.904;2022-10-16T01:53:59;14.60;99.90
13642;DHT22;6894;52.196;9.904;2022-10-16T01:56:27;14.50;99.90
13642;DHT22;6894;52.196;9.904;2022-10-16T01:59:00;14.50;99.90
13642;DHT22;6894;52.196;9.904;2022-10-16T02:01:31;14.50;99.90
13642;DHT22;6894;52.196;9.904;2022-10-16T02:04:12;14.40;99.90
13642;DHT22;6894;52.196;9.904;2022-10-16T02:06:39;14.40;99.90
13642;DHT22;6894;52.196;9.904;2022-10-16T02:09:06;14.40;99.90
13642;DHT22;6894;52.196;9.904;2022-10-16T02:11:33;14.40;99.90
13642;DHT22;6894;52.196;9.904;2022-10-16T02:14:04;14.30;99.90
13642;DHT22;6894;52.196;9.904;2022-10-16T02:16:36;14.20;99.90
13642;DHT22;6894;52.196;9.904;2022-10-16T02:19:04;14.20;99.90
13642;DHT22;6894;52.196;9.904;2022-10-16T02:21:36;14.10;99.90
13642;DHT22;6894;52.196;9.904;2022-10-16T02:24:07;14.10;99.90
13642;DHT22;6894;52.196;9.904;2022-10-16T02:26:39;14.00;99.90
13642;DHT22;6894;52.196;9.904;2022-10-16T02:29:12;14.00;99.90
13642;DHT22;6894;52.196;9.904;2022-10-16T02:31:43;14.00;99.90
13642;DHT22;6894;52.196;9.904;2022-10-16T02:34:13;14.00;99.90
13642;DHT22;6894;52.196;9.904;2022-10-16T02:36:42;13.90;99.90
13642;DHT22;6894;52.196;9.904;2022-10-16T02:39:09;13.80;99.90
13642;DHT22;6894;52.196;9.904;2022-10-16T02:41:37;13.90;99.90
13642;DHT22;6894;52.196;9.904;2022-10-16T02:44:04;13.90;99.90
13642;DHT22;6894;52.196;9.904;2022-10-16T02:46:32;13.90;99.90
13642;DHT22;6894;52.196;9.904;2022-10-16T02:48:59;13.80;99.90
13642;DHT22;6894;52.196;9.904;2022-10-16T02:51:26;13.80;99.90
13642;DHT22;6894;52.196;9.904;2022-10-16T02:53:52;13.70;99.90
13642;DHT22;6894;52.196;9.904;2022-10-16T02:56:19;13.80;99.90
13642;DHT22;6894;52.196;9.904;2022-10-16T02:58:46;13.80;99.90
13642;DHT22;6894;52.196;9.904;2022-10-16T03:01:12;13.80;99.90
13642;DHT22;6894;52.196;9.904;2022-10-16T03:03:43;13.80;99.90
13642;DHT22;6894;52.196;9.904;2022-10-16T03:06:10;13.70;99.90
13642;DHT22;6894;52.196;9.904;2022-10-16T03:08:36;13.60;99.90
13642;DHT22;6894;52.196;9.904;2022-10-16T03:11:04;13.60;99.90
13642;DHT22;6894;52.196;9.904;2022-10-16T03:13:31;13.60;99.90
13642;DHT22;6894;52.196;9.904;2022-10-16T03:15:57;13.50;99.90
13642;DHT22;6894;52.196;9.904;2022-10-16T03:18:24;13.50;99.90
13642;DHT22;6894;52.196;9.904;2022-10-16T03:20:52;13.50;99.90
13642;DHT22;6894;52.196;9.904;2022-10-16T03:23:19;13.40;99.90
13642;DHT22;6894;52.196;9.904;2022-10-16T03:25:45;13.40;99.90
13642;DHT22;6894;52.196;9.904;2022-10-16T03:28:12;13.30;99.90
13642;DHT22;6894;52.196;9.904;2022-10-16T03:30:39;13.30;99.90
13642;DHT22;6894;52.196;9.904;2022-10-16T03:33:06;13.20;99.90
13642;DHT22;6894;52.196;9.904;2022-10-16T03:35:33;13.30;99.90
13642;DHT22;6894;52.196;9.904;2022-10-16T03:38:01;13.40;99.90
13642;DHT22;6894;52.196;9.904;2022-10-16T03:40:27;13.30;99.90
13642;DHT22;6894;52.196;9.904;2022-10-16T03:42:55;13.20;99.90
13642;DHT22;6894;52.196;9.904;2022-10-16T03:45:22;13.20;99.90
13642;DHT22;6894;52.196;9.904;2022-10-16T03:47:49;13.30;99.90
13642;DHT22;6894;52.196;9.904;2022-10-16T03:50:16;13.20;99.90
13642;DHT22;6894;52.196;9.904;2022-10-16T03:52:43;13.20;99.90
13642;DHT22;6894;52.196;9.904;2022-10-16T03:55:11;13.20;99.90
13642;DHT22;6894;52.196;9.904;2022-10-16T03:57:37;13.20;99.90
13642;DHT22;6894;52.196;9.904;2022-10-16T04:00:05;13.20;99.90
13642;DHT22;6894;52.196;9.904;2022-10-16T04:02:32;13.20;99.90
13642;DHT22;6894;52.196;9.904;2022-10-16T04:04:58;13.20;99.90
13642;DHT22;6894;52.196;9.904;2022-10-16T04:07:25;13.20;99.90
13642;DHT22;6894;52.196;9.904;2022-10-16T04:09:52;13.40;99.90
13642;DHT22;6894;52.196;9.904;2022-10-16T04:12:20;13.40;99.90
13642;DHT22;6894;52.196;9.904;2022-10-16T04:14:47;13.40;99.90
13642;DHT22;6894;52.196;9.904;2022-10-16T04:17:13;13.30;99.90
13642;DHT22;6894;52.196;9.904;2022-10-16T04:19:40;13.40;99.90
13642;DHT22;6894;52.196;9.904;2022-10-16T04:22:07;13.30;99.90
13642;DHT22;6894;52.196;9.904;2022-10-16T04:24:34;13.30;99.90
13642;DHT22;6894;52.196;9.904;2022-10-16T04:27:00;13.30;99.90
13642;DHT22;6894;52.196;9.904;2022-10-16T04:29:28;13.20;99.90
13642;DHT22;6894;52.196;9.904;2022-10-16T04:31:55;13.20;99.90
13642;DHT22;6894;52.196;9.904;2022-10-16T04:34:22;13.20;99.90
13642;DHT22;6894;52.196;9.904;2022-10-16T04:36:49;13.10;99.90
13642;DHT22;6894;52.196;9.904;2022-10-16T04:39:16;13.20;99.90
13642;DHT22;6894;52.196;9.904;2022-10-16T04:41:43;13.30;99.90
13642;DHT22;6894;52.196;9.904;2022-10-16T04:44:09;13.20;99.90
13642;DHT22;6894;52.196;9.904;2022-10-16T04:46:37;13.20;99.90
13642;DHT22;6894;52.196;9.904;2022-10-16T04:49:04;13.30;99.90
13642;DHT22;6894;52.196;9.904;2022-10-16T04:51:31;13.30;99.90
13642;DHT22;6894;52.196;9.904;2022-10-16T04:53:58;13.20;99.90
13642;DHT22;6894;52.196;9.904;2022-10-16T04:56:25;13.20;99.90
13642;DHT22;6894;52.196;9.904;2022-10-16T04:58:51;13.20;99.90
13642;DHT22;6894;52.196;9.904;2022-10-16T05:01:18;13.10;99.90
13642;DHT22;6894;52.196;9.904;2022-10-16T05:03:46;13.20;99.90
13642;DHT22;6894;52.196;9.904;2022-10-16T05:06:13;13.10;99.90
13642;DHT22;6894;52.196;9.904;2022-10-16T05:08:39;13.10;99.90
13642;DHT22;6894;52.196;9.904;2022-10-16T05:11:06;13.20;99.90
13642;DHT22;6894;52.196;9.904;2022-10-16T05:13:33;13.20;99.90
13642;DHT22;6894;52.196;9.904;2022-10-16T05:16:00;13.20;99.90
13642;DHT22;6894;52.196;9.904;2022-10-16T05:18:26;13.20;99.90
13642;DHT22;6894;52.196;9.904;2022-10-16T05:20:54;13.20;99.90
13642;DHT22;6894;52.196;9.904;2022-10-16T05:23:21;13.20;99.90
13642;DHT22;6894;52.196;9.904;2022-10-16T05:25:52;13.20;99.90
13642;DHT22;6894;52.196;9.904;2022-10-16T05:28:19;13.20;99.90
13642;DHT22;6894;52.196;9.904;2022-10-16T05:30:46;13.20;99.90
13642;DHT22;6894;52.196;9.904;2022-10-16T05:33:13;13.10;99.90
13642;DHT22;6894;52.196;9.904;2022-10-16T05:35:39;13.10;99.90
13642;DHT22;6894;52.196;9.904;2022-10-16T05:38:11;13.10;99.90
13642;DHT22;6894;52.196;9.904;2022-10-16T05:40:38;13.10;99.90
13642;DHT22;6894;52.196;9.904;2022-10-16T05:43:05;13.10;99.90
13642;DHT22;6894;52.196;9.904;2022-10-16T05:45:32;13.00;99.90
13642;DHT22;6894;52.196;9.904;2022-10-16T05:48:01;13.00;99.90
13642;DHT22;6894;52.196;9.904;2022-10-16T05:50:28;13.00;99.90
13642;DHT22;6894;52.196;9.904;2022-10-16T05:52:59;13.20;99.90
13642;DHT22;6894;52.196;9.904;2022-10-16T05:55:31;13.10;99.90
13642;DHT22;6894;52.196;9.904;2022-10-16T05:57:58;13.30;99.90
13642;DHT22;6894;52.196;9.904;2022-10-16T06:00:25;13.50;99.90
13642;DHT22;6894;52.196;9.904;2022-10-16T06:02:51;13.80;99.90
13642;DHT22;6894;52.196;9.904;2022-10-16T06:05:18;13.70;99.90
13642;DHT22;6894;52.196;9.904;2022-10-16T06:07:45;13.80;99.90
13642;DHT22;6894;52.196;9.904;2022-10-16T06:10:12;13.90;99.90
13642;DHT22;6894;52.196;9.904;2022-10-16T06:12:43;13.90;99.90
13642;DHT22;6894;52.196;9.904;2022-10-16T06:15:10;13.90;99.90
13642;DHT22;6894;52.196;9.904;2022-10-16T06:17:36;13.90;99.90
13642;DHT22;6894;52.196;9.904;2022-10-16T06:20:03;13.90;99.90
13642;DHT22;6894;52.196;9.904;2022-10-16T06:22:30;14.00;99.90
13642;DHT22;6894;52.196;9.904;2022-10-16T06:24:57;14.00;99.90
13642;DHT22;6894;52.196;9.904;2022-10-16T06:27:24;14.00;99.90
13642;DHT22;6894;52.196;9.904;2022-10-16T06:29:52;14.10;99.90
13642;DHT22;6894;52.196;9.904;2022-10-16T06:32:19;14.10;99.90
13642;DHT22;6894;52.196;9.904;2022-10-16T06:34:46;14.30;99.90
13642;DHT22;6894;52.196;9.904;2022-10-16T06:37:13;14.30;99.90
13642;DHT22;6894;52.196;9.904;2022-10-16T06:39:40;14.30;99.90
13642;DHT22;6894;52.196;9.904;2022-10-16T06:42:06;14.40;99.90
13642;DHT22;6894;52.196;9.904;2022-10-16T06:44:33;14.50;99.90
13642;DHT22;6894;52.196;9.904;2022-10-16T06:47:01;14.50;99.90
13642;DHT22;6894;52.196;9.904;2022-10-16T06:49:28;14.60;99.90
13642;DHT22;6894;52.196;9.904;2022-10-16T06:51:55;14.60;99.90
13642;DHT22;6894;52.196;9.904;2022-10-16T06:54:22;14.60;99.90
13642;DHT22;6894;52.196;9.904;2022-10-16T06:56:48;14.70;99.90
13642;DHT22;6894;52.196;9.904;2022-10-16T06:59:19;14.80;99.90
13642;DHT22;6894;52.196;9.904;2022-10-16T07:01:46;14.90;99.90
13642;DHT22;6894;52.196;9.904;2022-10-16T07:04:14;15.10;99.90
13642;DHT22;6894;52.196;9.904;2022-10-16T07:06:40;15.20;99.90
13642;DHT22;6894;52.196;9.904;2022-10-16T07:09:10;15.50;99.90
13642;DHT22;6894;52.196;9.904;2022-10-16T07:11:38;15.50;99.90
13642;DHT22;6894;52.196;9.904;2022-10-16T07:14:05;15.60;99.90
13642;DHT22;6894;52.196;9.904;2022-10-16T07:16:38;15.80;99.90
13642;DHT22;6894;52.196;9.904;2022-10-16T07:19:05;15.90;99.90
13642;DHT22;6894;52.196;9.904;2022-10-16T07:21:34;16.00;99.90
13642;DHT22;6894;52.196;9.904;2022-10-16T07:24:02;16.20;99.90
13642;DHT22;6894;52.196;9.904;2022-10-16T07:26:32;16.10;99.90
13642;DHT22;6894;52.196;9.904;2022-10-16T07:28:59;16.40;99.90
13642;DHT22;6894;52.196;9.904;2022-10-16T07:31:27;16.40;99.90
13642;DHT22;6894;52.196;9.904;2022-10-16T07:33:54;16.50;99.90
13642;DHT22;6894;52.196;9.904;2022-10-16T07:36:21;16.60;99.90
13642;DHT22;6894;52.196;9.904;2022-10-16T07:38:49;16.80;99.90
13642;DHT22;6894;52.196;9.904;2022-10-16T07:41:17;16.90;99.90
13642;DHT22;6894;52.196;9.904;2022-10-16T07:43:46;16.90;99.90
13642;DHT22;6894;52.196;9.904;2022-10-16T07:46:13;16.90;99.90
13642;DHT22;6894;52.196;9.904;2022-10-16T07:48:41;17.10;99.90
13642;DHT22;6894;52.196;9.904;2022-10-16T07:51:11;17.20;99.90
13642;DHT22;6894;52.196;9.904;2022-10-16T07:53:38;17.30;99.90
13642;DHT22;6894;52.196;9.904;2022-10-16T07:56:07;17.50;99.90
13642;DHT22;6894;52.196;9.904;2022-10-16T07:58:34;17.80;99.90
13642;DHT22;6894;52.196;9.904;2022-10-16T08:01:03;17.70;99.90
13642;DHT22;6894;52.196;9.904;2022-10-16T08:03:30;17.70;99.90
13642;DHT22;6894;52.196;9.904;2022-10-16T08:05:57;18.00;99.90
13642;DHT22;6894;52.196;9.904;2022-10-16T08:08:24;17.70;99.90
13642;DHT22;6894;52.196;9.904;2022-10-16T08:10:51;17.60;99.90
13642;DHT22;6894;52.196;9.904;2022-10-16T08:13:19;17.70;99.90
13642;DHT22;6894;52.196;9.904;2022-10-16T08:15:47;17.70;99.90
13642;DHT22;6894;52.196;9.904;2022-10-16T08:18:14;17.60;99.90
13642;DHT22;6894;52.196;9.904;2022-10-16T08:20:42;17.50;99.90
13642;DHT22;6894;52.196;9.904;2022-10-16T08:23:09;17.50;99.90
13642;DHT22;6894;52.196;9.904;2022-10-16T08:25:37;17.50;99.90
13642;DHT22;6894;52.196;9.904;2022-10-16T08:28:04;17.50;99.90
13642;DHT22;6894;52.196;9.904;2022-10-16T08:30:32;17.60;99.90
13642;DHT22;6894;52.196;9.904;2022-10-16T08:32:59;17.60;99.90
13642;DHT22;6894;52.196;9.904;2022-10-16T08:35:26;17.70;99.90
13642;DHT22;6894;52.196;9.904;2022-10-16T08:37:53;17.70;99.90
13642;DHT22;6894;52.196;9.904;2022-10-16T08:40:22;18.00;99.90
13642;DHT22;6894;52.196;9.904;2022-10-16T08:43:16;18.00;99.90
13642;DHT22;6894;52.196;9.904;2022-10-16T08:45:59;18.30;99.90
13642;DHT22;6894;52.196;9.904;2022-10-16T08:48:33;18.40;99.90
13642;DHT22;6894;52.196;9.904;2022-10-16T08:51:02;18.50;99.90
13642;DHT22;6894;52.196;9.904;2022-10-16T08:53:36;18.80;99.90
13642;DHT22;6894;52.196;9.904;2022-10-16T08:56:06;18.90;99.90
13642;DHT22;6894;52.196;9.904;2022-10-16T08:58:33;19.00;99.90
13642;DHT22;6894;52.196;9.904;2022-10-16T09:01:03;19.10;99.90
13642;DHT22;6894;52.196;9.904;2022-10-16T09:03:42;19.10;99.90
13642;DHT22;6894;52.196;9.904;2022-10-16T09:06:27;19.00;90.40
13642;DHT22;6894;52.196;9.904;2022-10-16T09:09:07;18.90;99.90
13642;DHT22;6894;52.196;9.904;2022-10-16T09:11:46;18.60;98.70
13642;DHT22;6894;52.196;9.904;2022-10-16T09:14:29;18.30;99.90
13642;DHT22;6894;52.196;9.904;2022-10-16T09:17:20;18.50;99.90
13642;DHT22;6894;52.196;9.904;2022-10-16T09:19:53;18.90;45.20
13642;DHT22;6894;52.196;9.904;2022-10-16T09:22:26;18.90;10.60
13642;DHT22;6894;52.196;9.904;2022-10-16T09:24:55;18.90;3.30
13642;DHT22;6894;52.196;9.904;2022-10-16T09:27:26;18.90;13.60
13642;DHT22;6894;52.196;9.904;2022-10-16T09:29:54;19.10;1.00
13642;DHT22;6894;52.196;9.904;2022-10-16T09:32:22;19.10;1.00
13642;DHT22;6894;52.196;9.904;2022-10-16T09:34:51;19.20;1.00
13642;DHT22;6894;52.196;9.904;2022-10-16T09:37:21;19.60;1.00
13642;DHT22;6894;52.196;9.904;2022-10-16T09:39:50;19.80;1.00
13642;DHT22;6894;52.196;9.904;2022-10-16T09:42:18;19.80;1.00
13642;DHT22;6894;52.196;9.904;2022-10-16T09:44:50;19.70;1.00
13642;DHT22;6894;52.196;9.904;2022-10-16T09:47:23;19.70;1.00
13642;DHT22;6894;52.196;9.904;2022-10-16T09:49:54;19.80;1.00
13642;DHT22;6894;52.196;9.904;2022-10-16T09:52:21;19.80;1.00
13642;DHT22;6894;52.196;9.904;2022-10-16T09:54:50;19.80;1.00
13642;DHT22;6894;52.196;9.904;2022-10-16T09:57:26;19.70;1.00
13642;DHT22;6894;52.196;9.904;2022-10-16T09:59:57;19.70;1.00
13642;DHT22;6894;52.196;9.904;2022-10-16T10:02:30;19.70;1.00
13642;DHT22;6894;52.196;9.904;2022-10-16T10:05:00;20.00;1.00
13642;DHT22;6894;52.196;9.904;2022-10-16T10:07:31;20.20;1.00
13642;DHT22;6894;52.196;9.904;2022-10-16T10:10:05;20.20;1.00
13642;DHT22;6894;52.196;9.904;2022-10-16T10:12:33;20.50;1.00
13642;DHT22;6894;52.196;9.904;2022-10-16T10:15:06;20.70;1.00
13642;DHT22;6894;52.196;9.904;2022-10-16T10:17:45;20.50;1.00
13642;DHT22;6894;52.196;9.904;2022-10-16T10:20:22;20.20;1.00
13642;DHT22;6894;52.196;9.904;2022-10-16T10:22:53;20.30;1.00
13642;DHT22;6894;52.196;9.904;2022-10-16T10:25:38;20.50;1.00
13642;DHT22;6894;52.196;9.904;2022-10-16T10:28:24;20.60;1.00
13642;DHT22;6894;52.196;9.904;2022-10-16T10:30:59;20.80;1.00
13642;DHT22;6894;52.196;9.904;2022-10-16T10:33:37;21.00;1.00
13642;DHT22;6894;52.196;9.904;2022-10-16T10:36:13;21.10;1.00
13642;DHT22;6894;52.196;9.904;2022-10-16T10:38:47;21.00;1.00
13642;DHT22;6894;52.196;9.904;2022-10-16T10:44:16;21.30;1.00
13642;DHT22;6894;52.196;9.904;2022-10-16T10:46:50;21.40;1.00
13642;DHT22;6894;52.196;9.904;2022-10-16T10:49:33;21.60;1.00
13642;DHT22;6894;52.196;9.904;2022-10-16T10:52:13;21.80;1.00
13642;DHT22;6894;52.196;9.904;2022-10-16T10:54:53;22.00;1.00
13642;DHT22;6894;52.196;9.904;2022-10-16T10:57:29;22.10;1.00
13642;DHT22;6894;52.196;9.904;2022-10-16T11:00:03;21.80;1.00
13642;DHT22;6894;52.196;9.904;2022-10-16T11:02:38;21.50;1.00
13642;DHT22;6894;52.196;9.904;2022-10-16T11:08:08;20.70;1.00
13642;DHT22;6894;52.196;9.904;2022-10-16T11:10:44;20.50;1.00
13642;DHT22;6894;52.196;9.904;2022-10-16T11:13:23;20.50;1.00
13642;DHT22;6894;52.196;9.904;2022-10-16T11:15:56;20.70;1.00
13642;DHT22;6894;52.196;9.904;2022-10-16T11:18:33;20.50;1.00
13642;DHT22;6894;52.196;9.904;2022-10-16T11:21:09;20.50;1.00
13642;DHT22;6894;52.196;9.904;2022-10-16T11:23:41;20.60;1.00
13642;DHT22;6894;52.196;9.904;2022-10-16T11:26:14;20.60;1.00
13642;DHT22;6894;52.196;9.904;2022-10-16T11:28:45;20.90;1.00
13642;DHT22;6894;52.196;9.904;2022-10-16T11:31:17;21.30;1.00
13642;DHT22;6894;52.196;9.904;2022-10-16T11:33:49;21.10;1.00
13642;DHT22;6894;52.196;9.904;2022-10-16T11:36:23;21.20;1.00
13642;DHT22;6894;52.196;9.904;2022-10-16T11:39:00;21.10;1.00
13642;DHT22;6894;52.196;9.904;2022-10-16T11:41:32;21.00;1.00
13642;DHT22;6894;52.196;9.904;2022-10-16T11:44:14;20.90;1.00
13642;DHT22;6894;52.196;9.904;2022-10-16T11:46:48;21.20;1.00
13642;DHT22;6894;52.196;9.904;2022-10-16T11:49:19;21.30;1.00
13642;DHT22;6894;52.196;9.904;2022-10-16T11:51:56;21.30;1.00
13642;DHT22;6894;52.196;9.904;2022-10-16T11:54:31;21.50;1.00
13642;DHT22;6894;52.196;9.904;2022-10-16T11:57:02;21.60;1.00
13642;DHT22;6894;52.196;9.904;2022-10-16T11:59:36;21.60;1.00
13642;DHT22;6894;52.196;9.904;2022-10-16T12:02:26;21.90;1.00
13642;DHT22;6894;52.196;9.904;2022-10-16T12:05:02;22.20;1.00
13642;DHT22;6894;52.196;9.904;2022-10-16T12:07:36;22.40;1.00
13642;DHT22;6894;52.196;9.904;2022-10-16T12:10:10;22.60;1.00
13642;DHT22;6894;52.196;9.904;2022-10-16T12:12:39;22.20;1.00
13642;DHT22;6894;52.196;9.904;2022-10-16T12:15:20;22.40;1.00
13642;DHT22;6894;52.196;9.904;2022-10-16T12:17:47;22.70;1.00
13642;DHT22;6894;52.196;9.904;2022-10-16T12:20:35;22.60;1.00
13642;DHT22;6894;52.196;9.904;2022-10-16T12:23:06;22.70;1.00
13642;DHT22;6894;52.196;9.904;2022-10-16T12:25:34;22.60;1.00
13642;DHT22;6894;52.196;9.904;2022-10-16T12:28:04;22.80;1.00
13642;DHT22;6894;52.196;9.904;2022-10-16T12:30:33;22.90;1.00
13642;DHT22;6894;52.196;9.904;2022-10-16T12:33:02;23.10;1.00
13642;DHT22;6894;52.196;9.904;2022-10-16T12:35:32;23.30;1.00
13642;DHT22;6894;52.196;9.904;2022-10-16T12:38:16;23.40;1.00
13642;DHT22;6894;52.196;9.904;2022-10-16T12:40:44;23.00;1.00
13642;DHT22;6894;52.196;9.904;2022-10-16T12:43:23;22.80;1.00
13642;DHT22;6894;52.196;9.904;2022-10-16T12:45:59;22.40;1.00
13642;DHT22;6894;52.196;9.904;2022-10-16T12:48:26;21.80;1.00
13642;DHT22;6894;52.196;9.904;2022-10-16T12:50:53;21.80;1.00
13642;DHT22;6894;52.196;9.904;2022-10-16T12:53:23;21.90;1.00
13642;DHT22;6894;52.196;9.904;2022-10-16T12:56:02;22.10;1.00
13642;DHT22;6894;52.196;9.904;2022-10-16T12:58:54;22.40;1.00
13642;DHT22;6894;52.196;9.904;2022-10-16T13:01:31;22.40;1.00
13642;DHT22;6894;52.196;9.904;2022-10-16T13:04:23;22.50;1.00
13642;DHT22;6894;52.196;9.904;2022-10-16T13:07:03;22.70;1.00
13642;DHT22;6894;52.196;9.904;2022-10-16T13:09:50;22.70;1.00
13642;DHT22;6894;52.196;9.904;2022-10-16T13:12:33;22.70;1.00
13642;DHT22;6894;52.196;9.904;2022-10-16T13:15:22;22.60;1.00
13642;DHT22;6894;52.196;9.904;2022-10-16T13:17:58;22.70;1.00
13642;DHT22;6894;52.196;9.904;2022-10-16T13:20:33;22.90;1.00
13642;DHT22;6894;52.196;9.904;2022-10-16T13:23:09;22.20;1.00
13642;DHT22;6894;52.196;9.904;2022-10-16T13:25:49;22.00;1.00
13642;DHT22;6894;52.196;9.904;2022-10-16T13:28:26;22.30;1.00
13642;DHT22;6894;52.196;9.904;2022-10-16T13:30:56;22.50;1.00
13642;DHT22;6894;52.196;9.904;2022-10-16T13:33:27;22.80;1.00
13642;DHT22;6894;52.196;9.904;2022-10-16T13:35:57;22.50;1.00
13642;DHT22;6894;52.196;9.904;2022-10-16T13:38:26;21.70;1.00
13642;DHT22;6894;52.196;9.904;2022-10-16T13:40:56;21.70;1.00
13642;DHT22;6894;52.196;9.904;2022-10-16T13:43:27;22.20;1.00
13642;DHT22;6894;52.196;9.904;2022-10-16T13:45:59;22.70;1.00
13642;DHT22;6894;52.196;9.904;2022-10-16T13:48:27;22.80;1.00
13642;DHT22;6894;52.196;9.904;2022-10-16T13:51:02;22.70;1.00
13642;DHT22;6894;52.196;9.904;2022-10-16T13:53:34;22.70;1.00
13642;DHT22;6894;52.196;9.904;2022-10-16T13:56:07;22.80;1.00
13642;DHT22;6894;52.196;9.904;2022-10-16T13:58:34;22.70;1.00
13642;DHT22;6894;52.196;9.904;2022-10-16T14:01:02;23.00;1.00
13642;DHT22;6894;52.196;9.904;2022-10-16T14:03:31;22.80;1.00
13642;DHT22;6894;52.196;9.904;2022-10-16T14:06:01;22.70;1.00
13642;DHT22;6894;52.196;9.904;2022-10-16T14:08:29;22.40;1.00
13642;DHT22;6894;52.196;9.904;2022-10-16T14:10:58;22.30;1.00
13642;DHT22;6894;52.196;9.904;2022-10-16T14:13:31;22.40;1.00
13642;DHT22;6894;52.196;9.904;2022-10-16T14:16:06;22.70;1.00
13642;DHT22;6894;52.196;9.904;2022-10-16T14:18:33;22.80;1.00
13642;DHT22;6894;52.196;9.904;2022-10-16T14:21:05;22.70;1.00
13642;DHT22;6894;52.196;9.904;2022-10-16T14:23:35;22.50;1.00
13642;DHT22;6894;52.196;9.904;2022-10-16T14:26:12;22.40;1.00
13642;DHT22;6894;52.196;9.904;2022-10-16T14:28:42;22.30;1.00
13642;DHT22;6894;52.196;9.904;2022-10-16T14:31:31;22.30;1.00
13642;DHT22;6894;52.196;9.904;2022-10-16T14:33:59;21.90;1.00
13642;DHT22;6894;52.196;9.904;2022-10-16T14:36:27;22.00;1.00
13642;DHT22;6894;52.196;9.904;2022-10-16T14:38:59;22.00;1.00
13642;DHT22;6894;52.196;9.904;2022-10-16T14:41:27;22.00;1.00
13642;DHT22;6894;52.196;9.904;2022-10-16T14:43:56;22.10;1.00
13642;DHT22;6894;52.196;9.904;2022-10-16T14:46:30;22.20;1.00
13642;DHT22;6894;52.196;9.904;2022-10-16T14:49:01;21.90;1.00
13642;DHT22;6894;52.196;9.904;2022-10-16T14:51:29;21.60;1.00
13642;DHT22;6894;52.196;9.904;2022-10-16T14:53:55;21.60;1.00
13642;DHT22;6894;52.196;9.904;2022-10-16T14:56:24;21.50;1.00
13642;DHT22;6894;52.196;9.904;2022-10-16T14:58:52;21.60;1.00
13642;DHT22;6894;52.196;9.904;2022-10-16T15:01:20;21.50;1.00
13642;DHT22;6894;52.196;9.904;2022-10-16T15:03:53;21.30;1.00
13642;DHT22;6894;52.196;9.904;2022-10-16T15:06:20;21.30;1.00
13642;DHT22;6894;52.196;9.904;2022-10-16T15:08:48;21.10;1.00
13642;DHT22;6894;52.196;9.904;2022-10-16T15:11:16;21.10;1.00
13642;DHT22;6894;52.196;9.904;2022-10-16T15:13:43;21.00;1.00
13642;DHT22;6894;52.196;9.904;2022-10-16T15:16:11;20.90;1.00
13642;DHT22;6894;52.196;9.904;2022-10-16T15:18:40;20.90;1.00
13642;DHT22;6894;52.196;9.904;2022-10-16T15:21:07;20.70;1.00
13642;DHT22;6894;52.196;9.904;2022-10-16T15:23:34;20.70;1.00
13642;DHT22;6894;52.196;9.904;2022-10-16T15:26:01;20.60;1.00
13642;DHT22;6894;52.196;9.904;2022-10-16T15:28:27;20.50;1.00
13642;DHT22;6894;52.196;9.904;2022-10-16T15:30:56;20.40;1.00
13642;DHT22;6894;52.196;9.904;2022-10-16T15:33:24;20.30;1.00
13642;DHT22;6894;52.196;9.904;2022-10-16T15:35:54;20.20;1.00
13642;DHT22;6894;52.196;9.904;2022-10-16T15:38:21;20.00;1.00
13642;DHT22;6894;52.196;9.904;2022-10-16T15:40:49;20.00;1.00
13642;DHT22;6894;52.196;9.904;2022-10-16T15:43:16;19.90;1.00
13642;DHT22;6894;52.196;9.904;2022-10-16T15:45:44;19.70;1.00
13642;DHT22;6894;52.196;9.904;2022-10-16T15:48:11;19.60;1.00
13642;DHT22;6894;52.196;9.904;2022-10-16T15:50:39;19.40;1.00
13642;DHT22;6894;52.196;9.904;2022-10-16T15:53:07;19.40;1.00
13642;DHT22;6894;52.196;9.904;2022-10-16T15:55:34;19.20;1.00
13642;DHT22;6894;52.196;9.904;2022-10-16T15:58:03;19.00;1.00
13642;DHT22;6894;52.196;9.904;2022-10-16T16:00:30;19.00;1.00
13642;DHT22;6894;52.196;9.904;2022-10-16T16:02:56;18.90;1.00
13642;DHT22;6894;52.196;9.904;2022-10-16T16:05:23;18.80;1.00
13642;DHT22;6894;52.196;9.904;2022-10-16T16:07:53;18.70;1.00
13642;DHT22;6894;52.196;9.904;2022-10-16T16:10:21;18.70;1.00
13642;DHT22;6894;52.196;9.904;2022-10-16T16:12:48;18.50;1.00
13642;DHT22;6894;52.196;9.904;2022-10-16T16:15:17;18.50;1.00
13642;DHT22;6894;52.196;9.904;2022-10-16T16:17:44;18.20;1.00